Time;durP1;ratioP1;P1;durP2;ratioP2;P2;SDS_P1;SDS_P2;PMS_P1;PMS_P2;Temp;Humidity;BMP_temperature;BMP_pressure;BME280_temperature;BME280_humidity;BME280_pressure;Samples;Min_cycle;Max_cycle;Signal;HPM_P1;HPM_P2
2022/09/06 00:01:18;;;;;;;4.20;1.25;;;14.20;99.90;;;13.16;84.85;102143.53;5017649;28;20060;-77
2022/09/06 00:03:47;;;;;;;5.22;1.25;;;14.20;99.90;;;13.13;85.51;102143.63;5017805;28;20091;-79
2022/09/06 00:06:16;;;;;;;6.80;0.90;;;14.20;99.90;;;13.12;85.96;102136.63;5018712;28;20105;-78
2022/09/06 00:08:43;;;;;;;4.38;1.50;;;14.20;99.90;;;13.05;86.11;102133.31;5016783;28;20049;-78
2022/09/06 00:11:10;;;;;;;1.58;0.73;;;14.20;99.90;;;13.08;86.63;102127.06;5017946;28;20089;-77
2022/09/06 00:13:40;;;;;;;5.85;1.02;;;14.10;99.90;;;13.07;85.96;102136.78;5015448;28;20086;-78
2022/09/06 00:16:22;;;;;;;5.70;1.30;;;14.10;99.90;;;12.96;86.36;102124.81;5016365;28;20112;-77
2022/09/06 00:18:51;;;;;;;4.25;1.17;;;14.00;99.90;;;12.89;87.26;102130.34;5016741;28;20118;-77
2022/09/06 00:21:26;;;;;;;1.73;0.98;;;14.00;99.90;;;12.88;87.70;102125.97;4999314;28;20397;-78
2022/09/06 00:23:53;;;;;;;8.27;1.30;;;13.90;99.90;;;12.80;88.26;102133.28;5015921;28;20040;-79
2022/09/06 00:26:20;;;;;;;4.22;1.20;;;13.90;99.90;;;12.79;88.28;102131.56;5013930;28;20030;-77
2022/09/06 00:28:49;;;;;;;8.23;1.42;;;13.80;99.90;;;12.70;88.54;102131.88;5017095;28;20029;-77
2022/09/06 00:31:21;;;;;;;6.70;0.85;;;13.80;99.90;;;12.68;88.88;102136.34;5008446;28;20037;-78
2022/09/06 00:33:49;;;;;;;3.30;1.10;;;13.70;99.90;;;12.57;89.24;102138.47;5015946;28;20402;-77
2022/09/06 00:36:15;;;;;;;5.43;1.10;;;13.70;99.90;;;12.59;89.72;102128.72;5017757;28;20029;-79
2022/09/06 00:38:44;;;;;;;2.05;1.02;;;13.60;99.90;;;12.52;90.27;102126.25;5015013;28;20113;-78
2022/09/06 00:41:13;;;;;;;5.45;0.98;;;13.60;99.90;;;12.55;89.98;102127.06;5031575;28;20061;-77
2022/09/06 00:43:40;;;;;;;3.80;0.93;;;13.60;99.90;;;12.47;89.99;102128.19;5001985;28;20168;-78
2022/09/06 00:46:14;;;;;;;3.72;1.00;;;13.50;99.90;;;12.45;89.67;102129.16;5002458;28;20057;-78
2022/09/06 00:48:41;;;;;;;3.13;1.10;;;13.50;99.90;;;12.37;90.66;102124.13;5018902;28;20613;-77
2022/09/06 00:51:12;;;;;;;7.00;1.23;;;13.40;99.90;;;12.30;90.40;102122.59;5018826;28;20402;-78
2022/09/06 00:53:38;;;;;;;10.98;1.35;;;13.40;99.90;;;12.20;91.42;102123.78;5005844;28;20508;-77
2022/09/06 00:56:04;;;;;;;3.75;1.33;;;13.30;99.90;;;11.99;92.14;102118.25;5020898;28;20034;-78
2022/09/06 00:58:30;;;;;;;4.47;1.13;;;13.20;99.90;;;11.94;92.76;102112.25;5020365;28;20076;-78
2022/09/06 01:00:56;;;;;;;7.20;1.10;;;13.10;99.90;;;11.78;93.37;102117.09;5021474;28;20388;-79
2022/09/06 01:03:24;;;;;;;3.65;1.30;;;13.10;99.90;;;11.88;93.56;102117.72;5018671;28;20033;-77
2022/09/06 01:06:23;;;;;;;8.43;1.20;;;13.00;99.90;;;11.87;92.17;102114.16;5021229;28;20040;-78
2022/09/06 01:09:22;;;;;;;6.45;1.20;;;13.00;99.90;;;11.78;91.54;102111.81;5022822;28;20041;-77
2022/09/06 01:12:19;;;;;;;2.17;0.90;;;12.90;99.90;;;11.74;92.45;102119.88;5019049;28;20029;-77
2022/09/06 01:15:43;;;;;;;2.83;1.30;;;12.80;99.90;;;11.65;92.81;102111.31;5020240;28;20112;-77
2022/09/06 01:18:43;;;;;;;4.93;0.90;;;12.80;99.90;;;11.59;93.24;102116.75;4997729;28;20160;-77
2022/09/06 01:21:29;;;;;;;4.65;1.05;;;12.70;99.90;;;11.57;94.19;102121.22;4964938;28;20542;-78
2022/09/06 01:24:17;;;;;;;3.13;1.10;;;12.60;99.90;;;11.46;95.29;102121.50;5015950;28;20465;-78
2022/09/06 01:27:11;;;;;;;2.72;1.00;;;12.60;99.90;;;11.46;95.83;102112.75;5019019;28;20444;-79
2022/09/06 01:30:05;;;;;;;4.43;0.90;;;12.60;99.90;;;11.44;96.46;102114.56;5028031;28;20038;-78
2022/09/06 01:32:59;;;;;;;1.98;1.00;;;12.60;99.90;;;11.34;96.80;102119.22;5018853;28;20042;-77
2022/09/06 01:35:56;;;;;;;3.78;1.45;;;12.50;99.90;;;11.38;96.34;102109.44;5019562;28;20080;-78
2022/09/06 01:38:22;;;;;;;2.17;0.90;;;12.50;99.90;;;11.34;96.01;102119.22;5019814;28;20375;-77
2022/09/06 01:40:50;;;;;;;3.65;1.25;;;12.50;99.90;;;11.40;95.32;102112.91;5036774;28;20036;-77
2022/09/06 01:43:37;;;;;;;7.40;1.00;;;11.50;99.90;;;11.41;94.97;102117.28;5018679;28;20033;-79
2022/09/06 01:46:24;;;;;;;2.85;1.38;;;12.50;99.90;;;11.36;94.70;102117.44;5017676;28;20034;-77
2022/09/06 01:49:27;;;;;;;1.58;1.02;;;12.50;99.90;;;11.32;95.08;102109.63;5021574;28;20514;-77
2022/09/06 01:52:20;;;;;;;3.28;1.20;;;12.40;99.90;;;11.22;95.61;102109.88;5020997;28;20066;-77
2022/09/06 01:55:17;;;;;;;2.47;1.35;;;12.40;99.90;;;11.12;96.66;102105.75;5018185;28;20110;-77
2022/09/06 01:58:22;;;;;;;4.03;1.17;;;12.30;99.90;;;11.08;96.93;102110.25;5015171;28;20034;-77
2022/09/06 02:01:10;;;;;;;2.50;1.13;;;12.30;99.90;;;11.11;96.63;102111.94;5021437;28;20030;-77
2022/09/06 02:03:48;;;;;;;4.70;1.40;;;12.30;99.90;;;11.09;96.60;102113.75;5020517;28;20041;-76
2022/09/06 02:06:22;;;;;;;5.05;1.30;;;12.30;99.90;;;11.09;96.90;102108.47;5020590;28;20109;-77
2022/09/06 02:08:55;;;;;;;2.13;1.13;;;12.30;99.90;;;11.08;97.10;102104.13;5017214;28;20034;-77
2022/09/06 02:11:23;;;;;;;6.03;1.20;;;12.20;99.90;;;11.03;97.35;102104.22;5018756;28;20044;-77
2022/09/06 02:13:59;;;;;;;6.57;1.30;;;12.30;99.90;;;11.08;97.20;102104.13;5002402;28;20049;-77
2022/09/06 02:16:28;;;;;;;2.38;0.95;;;12.20;99.90;;;11.09;96.85;102103.22;5019696;28;20041;-78
2022/09/06 02:19:11;;;;;;;6.90;1.15;;;12.20;99.90;;;11.04;97.30;102110.38;5018654;28;20084;-77
2022/09/06 02:21:42;;;;;;;6.38;1.10;;;12.20;99.90;;;10.98;97.90;102106.13;5015377;28;20109;-78
2022/09/06 02:24:15;;;;;;;4.13;1.33;;;12.20;99.90;;;11.02;97.61;102112.19;5018490;28;20175;-78
2022/09/06 02:26:43;;;;;;;2.33;1.00;;;12.20;99.90;;;11.04;96.86;102105.97;5018254;28;20621;-77
2022/09/06 02:29:09;;;;;;;4.10;0.98;;;12.20;99.90;;;11.02;97.03;102114.81;5019227;28;20034;-77
2022/09/06 02:31:50;;;;;;;3.50;1.10;;;12.20;99.90;;;10.95;96.48;102110.59;5014931;28;20042;-77
2022/09/06 02:34:18;;;;;;;2.15;0.90;;;12.20;99.90;;;10.98;96.41;102114.03;5013561;28;20073;-78
2022/09/06 02:36:45;;;;;;;4.15;0.98;;;12.10;99.90;;;10.90;97.14;102112.50;5014841;28;20041;-78
2022/09/06 02:39:19;;;;;;;4.55;0.90;;;12.10;99.90;;;10.82;97.56;102120.59;5018277;28;20088;-77
2022/09/06 02:41:46;;;;;;;1.92;0.90;;;12.00;99.90;;;10.84;97.41;102119.69;5017307;28;20375;-78
2022/09/06 02:44:20;;;;;;;2.95;1.00;;;12.00;99.90;;;10.81;97.69;102119.72;4999536;28;20095;-77
2022/09/06 02:46:46;;;;;;;3.03;0.85;;;12.00;99.90;;;10.78;97.77;102130.38;5017850;28;20025;-78
2022/09/06 02:49:12;;;;;;;3.75;1.20;;;12.00;99.90;;;10.79;97.08;102120.69;5035018;28;20037;-77
2022/09/06 02:51:38;;;;;;;5.13;1.20;;;12.00;99.90;;;10.71;97.86;102120.84;5019356;28;20045;-79
2022/09/06 02:54:05;;;;;;;3.70;1.20;;;11.90;99.90;;;10.63;98.79;102120.22;5001846;28;20029;-78
2022/09/06 02:56:32;;;;;;;8.77;1.10;;;11.90;99.90;;;10.67;98.53;102111.34;5017976;28;20052;-77
2022/09/06 02:58:59;;;;;;;1.17;0.75;;;11.90;99.90;;;10.69;98.24;102122.69;5015391;28;20030;-77
2022/09/06 03:01:25;;;;;;;4.32;0.93;;;11.90;99.90;;;10.72;97.39;102111.22;5017290;28;20034;-78
2022/09/06 03:03:51;;;;;;;6.72;1.02;;;11.90;99.90;;;10.66;97.89;102113.06;5018265;28;20088;-77
2022/09/06 03:06:18;;;;;;;1.08;0.85;;;11.80;99.90;;;10.59;98.34;102110.66;5018565;28;20064;-78
2022/09/06 03:08:43;;;;;;;1.60;0.80;;;11.80;99.90;;;10.67;98.22;102109.56;4998914;28;20117;-78
2022/09/06 03:11:09;;;;;;;2.00;1.20;;;11.90;99.90;;;10.66;97.30;102112.22;5017784;28;20505;-77
2022/09/06 03:13:37;;;;;;;3.45;0.82;;;11.80;99.90;;;10.57;97.51;102113.31;5031704;28;20512;-77
2022/09/06 03:16:03;;;;;;;4.80;1.10;;;11.80;99.90;;;10.57;97.86;102112.44;5019679;28;20108;-76
2022/09/06 03:18:31;;;;;;;1.20;0.95;;;11.80;99.90;;;10.54;97.84;102104.59;5020334;28;20407;-77
2022/09/06 03:20:57;;;;;;;3.72;1.25;;;11.80;99.90;;;10.57;98.08;102100.16;5013578;28;20036;-78
2022/09/06 03:23:26;;;;;;;3.70;1.05;;;11.80;99.90;;;10.56;97.46;102108.06;5017422;28;20034;-77
2022/09/06 03:25:55;;;;;;;2.85;1.00;;;11.80;99.90;;;10.52;97.60;102106.41;5001958;28;20108;-76
2022/09/06 03:28:21;;;;;;;3.90;0.98;;;11.70;99.90;;;10.53;97.79;102102.88;5018478;28;20592;-77
2022/09/06 03:30:50;;;;;;;3.67;1.02;;;11.70;99.90;;;10.56;97.01;102113.34;5001168;28;20168;-77
2022/09/06 03:33:17;;;;;;;3.17;1.00;;;11.70;99.90;;;10.50;97.01;102113.50;5018176;28;20088;-78
2022/09/06 03:35:51;;;;;;;3.08;1.13;;;11.70;99.90;;;10.49;96.68;102112.63;5016583;28;20041;-77
2022/09/06 03:38:17;;;;;;;4.50;1.15;;;11.60;99.90;;;10.42;97.88;102106.63;5018357;28;20389;-78
2022/09/06 03:40:48;;;;;;;2.53;0.88;;;11.60;99.90;;;10.41;97.75;102111.94;5017508;28;20021;-77
2022/09/06 03:43:16;;;;;;;3.30;1.10;;;11.60;99.90;;;10.42;97.72;102106.63;5011182;28;20095;-77
2022/09/06 03:45:53;;;;;;;2.00;0.80;;;11.60;99.90;;;10.44;97.00;102096.94;5016452;28;20406;-77
2022/09/06 03:48:21;;;;;;;4.15;0.98;;;11.60;99.90;;;10.33;97.64;102092.84;5013881;28;20112;-77
2022/09/06 03:50:51;;;;;;;1.70;0.80;;;11.50;99.90;;;10.33;97.97;102079.69;5002174;28;20036;-78
2022/09/06 03:53:18;;;;;;;1.70;0.90;;;11.50;99.90;;;10.27;97.81;102086.78;5034627;28;20374;-77
2022/09/06 03:55:50;;;;;;;2.85;0.90;;;11.50;99.90;;;10.26;97.90;102089.47;5015752;28;20034;-78
2022/09/06 03:58:18;;;;;;;4.65;0.90;;;11.50;99.90;;;10.24;98.10;102091.25;5015515;28;20034;-78
2022/09/06 04:00:43;;;;;;;4.45;0.98;;;11.50;99.90;;;10.25;98.48;102078.03;5001142;28;20049;-78
2022/09/06 04:03:09;;;;;;;2.85;0.82;;;11.50;99.90;;;10.31;97.94;102073.59;5016818;28;20064;-77
2022/09/06 04:05:40;;;;;;;1.90;1.00;;;11.50;99.90;;;10.36;97.18;102079.59;5018316;28;20030;-78
2022/09/06 04:08:06;;;;;;;1.92;0.90;;;11.50;99.90;;;10.31;97.18;102081.47;5015328;28;20030;-79
2022/09/06 04:10:32;;;;;;;6.70;1.08;;;11.50;99.90;;;10.31;96.81;102082.34;5003411;28;20457;-78
2022/09/06 04:12:58;;;;;;;2.22;0.90;;;11.50;99.90;;;10.25;97.37;102079.81;5000221;28;20031;-76
2022/09/06 04:15:24;;;;;;;2.70;1.05;;;11.40;99.90;;;10.21;97.30;102080.78;5016481;28;20104;-77
2022/09/06 04:17:57;;;;;;;2.70;0.77;;;11.50;99.90;;;10.24;97.66;102076.31;5019383;28;20491;-77
2022/09/06 04:20:22;;;;;;;3.03;1.00;;;11.40;99.90;;;10.19;97.34;102072.91;5034778;28;20018;-77
2022/09/06 04:22:48;;;;;;;2.22;0.85;;;11.40;99.90;;;10.26;97.44;102081.56;5019542;28;20509;-77
2022/09/06 04:25:14;;;;;;;0.88;0.73;;;11.50;99.90;;;10.27;97.12;102080.66;5019631;28;20064;-77
2022/09/06 04:27:40;;;;;;;4.85;1.10;;;11.40;99.90;;;10.17;97.28;102077.38;5038815;28;20057;-78
2022/09/06 04:30:07;;;;;;;3.50;0.85;;;11.40;99.90;;;10.21;97.44;102072.91;5022599;28;20072;-78
2022/09/06 04:32:35;;;;;;;2.63;0.90;;;11.50;99.90;;;10.31;96.74;102073.59;5020733;28;20060;-77
2022/09/06 04:35:01;;;;;;;4.45;1.08;;;11.50;99.90;;;10.41;95.89;102069.81;5024150;28;20494;-78
2022/09/06 04:37:27;;;;;;;4.68;0.93;;;11.50;99.90;;;10.36;95.73;102067.28;5023819;28;20072;-78
2022/09/06 04:39:53;;;;;;;1.88;1.10;;;11.50;99.90;;;10.48;94.79;102074.03;5020953;28;20585;-78
2022/09/06 04:42:18;;;;;;;2.38;0.90;;;11.50;99.90;;;10.50;94.48;102074.00;5023096;28;20037;-77
2022/09/06 04:44:44;;;;;;;2.75;1.02;;;11.60;99.90;;;10.50;94.37;102072.25;5018849;28;20037;-77
2022/09/06 04:47:17;;;;;;;3.20;0.70;;;11.60;99.90;;;10.49;94.62;102065.22;5023428;28;20100;-78
2022/09/06 04:49:43;;;;;;;1.83;0.80;;;11.60;99.90;;;10.52;93.96;102059.00;5020939;28;20124;-78
2022/09/06 04:52:10;;;;;;;3.50;0.85;;;11.70;99.90;;;10.62;93.62;102066.63;5005024;28;20026;-77
2022/09/06 04:54:36;;;;;;;4.43;0.77;;;11.70;99.90;;;10.66;93.50;102067.44;5020084;28;20057;-77
2022/09/06 04:57:02;;;;;;;4.95;0.70;;;11.70;99.90;;;10.62;93.61;102071.91;5021012;28;20180;-77
2022/09/06 04:59:32;;;;;;;2.20;0.85;;;11.80;99.90;;;10.76;93.50;102074.22;5021201;28;20033;-77
2022/09/06 05:01:58;;;;;;;2.67;1.10;;;11.80;99.90;;;10.87;92.15;102076.56;5020042;28;20030;-78
2022/09/06 05:04:24;;;;;;;3.58;0.98;;;11.90;99.90;;;10.93;91.67;102070.25;5021835;28;20090;-78
2022/09/06 05:07:06;;;;;;;1.70;0.77;;;11.90;99.90;;;11.00;91.41;102077.09;5017951;28;20036;-77
2022/09/06 05:09:36;;;;;;;1.33;0.73;;;12.00;99.90;;;11.11;90.53;102085.59;5020696;28;20691;-76
2022/09/06 05:12:04;;;;;;;2.72;1.10;;;12.10;99.90;;;11.19;90.21;102075.69;5019184;28;20038;-76
2022/09/06 05:14:30;;;;;;;4.15;0.70;;;12.20;99.90;;;11.28;89.29;102075.44;5021018;28;20529;-76
2022/09/06 05:16:56;;;;;;;2.85;0.90;;;12.20;99.90;;;11.31;89.02;102066.56;5008225;28;20038;-77
2022/09/06 05:19:22;;;;;;;2.53;0.80;;;12.30;99.90;;;11.45;87.90;102071.47;5030436;22;20051;-73
2022/09/06 05:21:50;;;;;;;5.15;0.70;;;12.40;99.90;;;12.44;87.32;102074.59;5020085;28;20045;-73
2022/09/06 05:24:16;;;;;;;2.25;0.70;;;13.30;99.90;;;15.65;71.38;102083.16;5001505;28;20785;-73
2022/09/06 05:26:42;;;;;;;2.50;0.70;;;13.70;99.90;;;14.14;72.04;102068.41;5005283;28;20029;-73
2022/09/06 05:29:08;;;;;;;5.53;1.10;;;14.20;99.90;;;17.25;67.80;102099.22;5002357;28;20060;-73
2022/09/06 05:31:34;;;;;;;3.17;0.93;;;15.00;99.90;;;17.47;62.21;102071.44;5002496;28;20038;-73
2022/09/06 05:34:00;;;;;;;1.27;0.70;;;15.40;99.90;;;16.68;63.92;102075.53;5004118;28;20030;-73
2022/09/06 05:36:28;;;;;;;5.20;0.88;;;15.40;99.90;;;15.45;66.53;102065.50;5020320;28;20116;-73
2022/09/06 05:38:55;;;;;;;10.77;1.00;;;15.20;99.90;;;14.38;69.56;102059.53;5021246;28;20033;-73
2022/09/06 05:41:23;;;;;;;4.13;0.70;;;14.80;99.90;;;13.74;72.14;102058.53;5002036;28;20390;-73
2022/09/06 05:43:48;;;;;;;1.92;0.70;;;14.40;99.90;;;13.26;74.37;102067.34;5002040;28;20037;-73
2022/09/06 05:46:17;;;;;;;4.95;0.80;;;14.20;99.90;;;13.29;75.53;102072.56;5021435;28;20033;-73
2022/09/06 05:48:50;;;;;;;6.43;0.75;;;14.20;99.90;;;13.99;74.25;102071.66;5003789;28;20026;-73
2022/09/06 05:51:15;;;;;;;1.65;0.82;;;14.20;99.90;;;13.69;74.25;102076.38;5016113;28;20518;-73
2022/09/06 05:53:45;;;;;;;3.85;0.90;;;14.20;99.90;;;13.40;75.06;102069.53;5001975;28;20036;-73
2022/09/06 05:56:13;;;;;;;1.13;0.45;;;14.00;99.90;;;13.13;76.88;102073.09;5018873;28;20030;-73
2022/09/06 05:58:39;;;;;;;3.55;0.77;;;13.90;99.90;;;13.24;76.22;102074.47;5000268;28;20032;-73
2022/09/06 06:01:15;;;;;;;2.28;0.70;;;14.00;99.90;;;13.61;76.10;102067.88;5002520;28;20037;-73
2022/09/06 06:03:48;;;;;;;2.63;0.73;;;14.20;99.90;;;13.68;75.01;102078.16;5020930;28;20018;-73
2022/09/06 06:06:14;;;;;;;3.70;0.77;;;14.30;99.90;;;14.01;74.07;102077.75;4968147;28;20111;-74
2022/09/06 06:08:40;;;;;;;3.65;0.98;;;14.40;99.90;;;14.23;73.12;102084.84;4954295;28;20031;-73
2022/09/06 06:11:05;;;;;;;4.68;0.65;;;14.50;99.90;;;13.89;73.08;102079.13;4970414;28;20034;-73
2022/09/06 06:13:38;;;;;;;2.42;0.70;;;14.60;99.90;;;14.01;73.23;102076.91;4967448;28;20038;-75
2022/09/06 06:16:12;;;;;;;7.32;1.10;;;14.50;99.90;;;13.88;73.70;102081.81;4971081;28;20038;-73
2022/09/06 06:18:39;;;;;;;7.25;0.68;;;14.50;99.90;;;13.79;74.44;102077.75;4970574;28;20038;-73
2022/09/06 06:21:18;;;;;;;3.55;0.77;;;14.70;99.90;;;14.00;74.12;102078.69;4947501;28;20066;-74
2022/09/06 06:23:46;;;;;;;6.57;0.75;;;14.70;99.90;;;14.15;73.49;102077.22;4971449;28;20065;-73
2022/09/06 06:26:12;;;;;;;1.77;0.60;;;14.80;99.90;;;14.45;72.50;102076.88;4964737;28;20383;-73
2022/09/06 06:28:39;;;;;;;2.85;0.85;;;15.20;99.90;;;15.75;69.46;102089.78;4969465;28;20038;-73
2022/09/06 06:31:08;;;;;;;5.00;0.82;;;15.40;99.90;;;15.43;69.17;102091.25;4971396;28;20122;-73
2022/09/06 06:33:35;;;;;;;2.65;0.65;;;15.60;99.90;;;15.45;68.79;102088.53;4969699;28;20042;-74
2022/09/06 06:36:05;;;;;;;1.95;0.77;;;15.80;99.90;;;15.38;69.05;102085.28;4953737;28;20085;-73
2022/09/06 06:38:36;;;;;;;3.80;0.77;;;15.80;99.90;;;15.22;69.52;102078.94;4966259;28;20026;-73
2022/09/06 06:41:04;;;;;;;1.88;0.60;;;15.80;99.90;;;15.59;69.08;102086.09;4967744;28;20495;-73
2022/09/06 06:43:35;;;;;;;2.05;0.70;;;15.80;99.90;;;15.37;68.92;102073.78;4968989;28;20027;-73
2022/09/06 06:46:32;;;;;;;2.95;0.63;;;15.90;99.90;;;15.22;69.21;102079.78;4969911;28;20514;-73
2022/09/06 06:48:58;;;;;;;2.13;0.70;;;16.00;99.90;;;15.85;68.53;102090.22;4969089;28;20105;-73
2022/09/06 06:51:31;;;;;;;4.82;0.85;;;16.40;99.90;;;17.83;64.07;102101.44;4968995;28;20054;-73
2022/09/06 06:53:57;;;;;;;2.60;0.93;;;17.30;99.90;;;19.49;58.52;102096.19;4952355;28;20799;-73
2022/09/06 06:56:33;;;;;;;3.28;0.50;;;18.40;99.90;;;20.89;55.29;102101.31;4969543;28;20150;-74
2022/09/06 06:59:02;;;;;;;2.28;0.80;;;19.40;99.90;;;21.21;53.50;102092.00;4953436;28;20027;-73
2022/09/06 07:01:31;;;;;;;2.33;0.50;;;20.20;99.90;;;21.56;52.56;102092.22;4969493;28;20605;-73
2022/09/06 07:03:57;;;;;;;1.80;0.57;;;20.70;99.90;;;21.28;52.53;102085.28;4953054;28;20514;-74
2022/09/06 07:06:23;;;;;;;3.03;0.88;;;20.30;99.90;;;19.97;54.36;102078.00;4968105;28;20057;-72
2022/09/06 07:08:49;;;;;;;2.45;0.80;;;20.70;99.90;;;21.18;53.08;102086.88;4969471;28;20031;-72
2022/09/06 07:11:17;;;;;;;2.22;0.80;;;21.00;99.90;;;21.66;52.29;102097.78;4943455;28;20037;-71
2022/09/06 07:13:43;;;;;;;3.00;0.60;;;21.30;99.80;;;21.79;51.39;102093.25;4966495;28;20041;-72
2022/09/06 07:16:20;;;;;;;2.85;0.57;;;21.50;99.20;;;21.61;51.67;102091.91;4969343;28;20403;-72
2022/09/06 07:18:51;;;;;;;6.93;1.10;;;21.30;98.70;;;20.87;52.31;102089.84;4968769;28;20043;-72
2022/09/06 07:21:25;;;;;;;2.05;0.60;;;21.30;98.50;;;20.98;52.32;102093.63;4968741;28;20115;-71
2022/09/06 07:23:54;;;;;;;4.38;0.77;;;21.30;98.80;;;21.24;52.16;102099.84;4969470;28;20443;-72
2022/09/06 07:26:24;;;;;;;1.02;0.55;;;21.00;97.70;;;20.25;52.69;102094.91;4970258;28;20394;-72
2022/09/06 07:28:58;;;;;;;4.00;0.60;;;20.90;99.10;;;20.38;53.31;102097.63;4969286;28;20110;-74
2022/09/06 07:31:24;;;;;;;1.98;0.55;;;20.60;98.90;;;19.88;54.36;102095.47;4962565;28;20050;-74
2022/09/06 07:33:50;;;;;;;2.03;0.70;;;20.70;98.80;;;19.85;54.02;102093.03;4960792;28;20117;-74
2022/09/06 07:36:16;;;;;;;6.10;0.70;;;20.50;98.80;;;19.51;54.50;102091.59;4968570;28;20054;-74
2022/09/06 07:38:46;;;;;;;2.67;0.70;;;20.40;98.80;;;19.47;54.70;102085.56;4969970;28;20034;-73
2022/09/06 07:41:12;;;;;;;1.65;0.60;;;20.30;99.30;;;19.50;55.00;102089.00;4966523;28;20038;-74
2022/09/06 07:43:37;;;;;;;3.35;0.60;;;20.40;99.00;;;19.90;54.18;102086.53;4966563;28;20572;-74
2022/09/06 07:46:06;;;;;;;1.90;0.60;;;20.50;99.10;;;20.07;53.49;102089.81;4942846;28;20031;-74
2022/09/06 07:48:35;;;;;;;2.53;0.68;;;20.50;99.30;;;20.06;54.46;102092.56;4968185;28;20034;-74
2022/09/06 07:51:07;;;;;;;2.28;0.70;;;20.50;98.90;;;19.63;54.76;102079.25;4968806;28;20614;-74
2022/09/06 07:53:35;;;;;;;1.10;0.60;;;20.40;98.50;;;19.49;54.64;102092.66;4966524;28;20029;-73
2022/09/06 07:56:04;;;;;;;1.15;0.60;;;20.50;99.10;;;20.04;53.88;102095.38;4969137;28;20039;-73
2022/09/06 07:58:31;;;;;;;0.68;0.50;;;20.50;98.90;;;19.77;54.46;102091.78;4967526;28;20499;-74
2022/09/06 08:01:15;;;;;;;1.20;0.70;;;20.60;98.90;;;19.95;53.53;102089.75;4952752;28;20045;-74
2022/09/06 08:03:41;;;;;;;4.68;0.63;;;20.20;99.40;;;19.24;55.77;102091.50;4968536;28;20030;-73
2022/09/06 08:06:07;;;;;;;9.77;0.75;;;20.50;99.30;;;19.85;54.58;102101.03;4966242;28;20018;-73
2022/09/06 08:08:33;;;;;;;3.95;0.65;;;20.70;98.60;;;19.70;54.20;102096.69;4970067;28;20411;-74
2022/09/06 08:10:59;;;;;;;10.23;0.73;;;20.50;98.80;;;19.48;55.02;102097.13;4968813;28;20031;-73
2022/09/06 08:13:25;;;;;;;5.70;0.70;;;20.30;99.30;;;19.38;55.44;102086.16;4967892;28;20039;-74
2022/09/06 08:16:08;;;;;;;8.98;0.85;;;20.10;98.90;;;18.78;56.10;102080.94;4968656;28;20038;-74
2022/09/06 08:18:36;;;;;;;2.28;0.60;;;19.90;99.30;;;18.78;56.08;102080.94;4968831;28;20796;-74
2022/09/06 08:21:10;;;;;;;3.97;0.75;;;19.60;99.50;;;18.36;57.16;102077.16;4968000;28;20039;-74
2022/09/06 08:23:37;;;;;;;3.17;0.60;;;19.40;99.90;;;18.40;57.48;102081.34;4966405;28;20130;-73
2022/09/06 08:26:03;;;;;;;0.95;0.60;;;19.20;99.90;;;18.19;57.55;102068.31;4950101;28;20038;-73
2022/09/06 08:28:29;;;;;;;0.68;0.55;;;18.80;99.90;;;17.70;58.33;102059.56;4965572;28;20667;-74
2022/09/06 08:31:06;;;;;;;1.30;0.60;;;18.70;99.90;;;17.68;58.58;102059.63;4966585;28;20029;-73
2022/09/06 08:33:32;;;;;;;8.43;0.68;;;18.80;99.90;;;18.21;58.70;102068.25;4982590;28;20027;-74
2022/09/06 08:35:59;;;;;;;3.63;0.60;;;19.00;99.90;;;18.44;57.89;102067.78;4967812;28;20061;-74
2022/09/06 08:38:26;;;;;;;0.52;0.50;;;19.20;99.90;;;18.65;57.39;102070.97;4968228;28;20050;-74
2022/09/06 08:40:54;;;;;;;9.32;0.60;;;19.30;99.90;;;18.60;57.02;102059.72;4951830;28;20045;-73
2022/09/06 08:43:21;;;;;;;2.53;0.77;;;19.40;99.90;;;18.75;56.65;102060.63;4958140;28;20785;-74
2022/09/06 08:45:55;;;;;;;3.10;0.68;;;19.60;99.90;;;19.03;55.92;102061.66;4968449;28;20579;-74
2022/09/06 08:48:25;;;;;;;1.45;0.60;;;19.60;99.80;;;18.74;56.16;102061.56;4967474;28;20043;-74
2022/09/06 08:51:21;;;;;;;1.70;0.50;;;19.70;99.90;;;19.11;55.92;102055.81;4967869;28;20113;-74
2022/09/06 08:53:47;;;;;;;2.25;0.50;;;19.60;99.70;;;18.69;56.05;102054.78;4967617;28;20035;-74
2022/09/06 08:56:25;;;;;;;;;;;19.60;99.80;;;19.12;56.53;102054.88;4967216;28;20042;-74
2022/09/06 08:59:05;;;;;;;;;;;19.70;99.90;;;18.82;55.27;102051.31;4964855;28;21184;-74
2022/09/06 09:02:10;;;;;;;4.90;0.55;;;19.50;99.80;;;18.52;56.42;102045.97;4967055;28;19960;-74
2022/09/06 09:04:51;;;;;;;1.90;0.43;;;19.60;99.90;;;18.87;55.92;102048.38;4970096;28;20050;-74
2022/09/06 09:07:44;;;;;;;0.95;0.60;;;19.60;99.80;;;18.70;55.77;102035.16;4971483;28;20066;-74
2022/09/06 09:10:55;;;;;;;4.35;0.60;;;19.40;99.90;;;18.25;55.81;102035.13;4971511;28;20030;-74
2022/09/06 09:13:54;;;;;;;3.58;0.70;;;19.30;99.60;;;18.18;56.07;102029.28;4943101;28;20518;-74
2022/09/06 09:16:20;;;;;;;7.32;0.63;;;19.10;99.30;;;18.09;56.54;102036.97;4969029;28;20034;-74
2022/09/06 09:19:00;;;;;;;2.55;0.50;;;19.00;99.80;;;18.20;56.50;102031.84;4970459;28;20407;-74
2022/09/06 09:21:35;;;;;;;1.80;0.60;;;19.00;99.60;;;18.07;56.55;102037.03;4971417;28;20506;-74
2022/09/06 09:24:08;;;;;;;1.40;0.40;;;18.90;99.60;;;18.02;56.19;102033.78;4971234;28;20045;-74
2022/09/06 09:26:52;;;;;;;1.65;0.43;;;18.90;99.90;;;18.16;56.20;102031.19;4963087;28;20027;-74
2022/09/06 09:29:21;;;;;;;3.53;0.57;;;19.00;99.80;;;18.37;56.06;102044.22;4970295;28;20134;-74
2022/09/06 09:31:53;;;;;;;2.55;0.50;;;19.20;99.90;;;18.50;56.39;102034.53;4968916;28;20034;-74
2022/09/06 09:34:39;;;;;;;0.70;0.60;;;19.30;99.40;;;18.56;55.24;102034.16;4952230;28;20042;-74
2022/09/06 09:37:28;;;;;;;5.45;0.45;;;19.20;99.00;;;18.34;55.58;102020.41;4955245;28;20042;-74
2022/09/06 09:39:59;;;;;;;3.30;0.47;;;19.30;99.10;;;18.60;55.18;102024.19;4968698;28;20414;-74
2022/09/06 09:42:36;;;;;;;1.15;0.50;;;19.40;99.70;;;18.69;55.37;102023.63;4969124;28;20035;-74
2022/09/06 09:45:29;;;;;;;3.60;0.57;;;19.40;99.00;;;18.81;54.66;102024.72;4970702;28;20043;-74
2022/09/06 09:48:19;;;;;;;1.77;0.70;;;19.60;98.80;;;18.95;54.31;102018.56;4963051;28;20030;-74
2022/09/06 09:50:45;;;;;;;0.85;0.65;;;19.80;98.20;;;19.15;53.48;102028.00;4969602;28;20206;-74
2022/09/06 09:53:21;;;;;;;8.68;0.60;;;19.90;98.60;;;19.29;53.59;102028.00;4969228;28;20039;-74
2022/09/06 09:55:56;;;;;;;5.00;0.50;;;20.10;98.90;;;19.43;52.59;102014.59;4970494;28;20038;-74
2022/09/06 09:58:35;;;;;;;1.17;0.40;;;20.30;96.70;;;19.65;51.45;102016.78;4970186;28;20086;-75
2022/09/06 10:01:14;;;;;;;1.65;0.50;;;20.50;96.70;;;19.99;50.47;102021.75;4954545;28;20074;-74
2022/09/06 10:03:43;;;;;;;7.78;0.90;;;20.60;95.60;;;19.80;49.88;102009.59;4969522;28;20058;-74
2022/09/06 10:06:15;;;;;;;1.25;0.50;;;20.60;95.60;;;19.76;50.42;102008.09;4962128;28;20026;-74
2022/09/06 10:08:42;;;;;;;1.98;0.50;;;20.60;95.70;;;19.86;50.24;102003.84;4954736;28;20049;-75
2022/09/06 10:11:47;;;;;;;1.70;0.47;;;20.70;95.30;;;20.07;49.82;101996.22;4954270;28;20810;-74
2022/09/06 10:14:54;;;;;;;9.50;0.73;;;21.10;97.30;;;20.72;49.72;102009.75;4966235;28;20088;-74
2022/09/06 10:17:51;;;;;;;12.00;0.60;;;21.40;95.50;;;21.00;48.93;101996.16;4967640;28;20097;-74
2022/09/06 10:20:19;;;;;;;6.07;0.50;;;21.70;95.50;;;21.30;48.07;101997.63;4953188;28;20057;-74
2022/09/06 10:23:38;;;;;;;2.15;0.40;;;21.90;93.90;;;21.17;47.17;101991.44;4970330;28;20407;-74
2022/09/06 10:26:28;;;;;;;2.35;0.60;;;22.10;94.40;;;21.65;48.09;101994.22;4945628;28;20043;-74
2022/09/06 10:29:09;;;;;;;1.63;0.50;;;22.30;94.80;;;21.73;47.33;101999.00;4970751;28;20177;-74
2022/09/06 10:32:00;;;;;;;1.15;0.60;;;22.40;93.90;;;21.70;47.12;101987.53;4970620;28;20037;-74
2022/09/06 10:34:48;;;;;;;2.35;0.65;;;22.60;93.10;;;21.44;45.79;101981.41;4968880;28;20157;-73
2022/09/06 10:38:02;;;;;;;5.88;0.60;;;22.20;92.70;;;21.23;45.97;101988.28;4953539;28;20615;-73